sensor_id;sensor_type;location;lat;lon;timestamp;P1;durP1;ratioP1;P2;durP2;ratioP2
55655;SDS011;41530;52.382;5.270;2024-01-07T00:02:12;2.17;;;1.63;;
55655;SDS011;41530;52.382;5.270;2024-01-07T00:04:42;2.85;;;1.52;;
55655;SDS011;41530;52.382;5.270;2024-01-07T00:07:11;1.30;;;1.20;;
55655;SDS011;41530;52.382;5.270;2024-01-07T00:09:38;2.00;;;1.40;;
55655;SDS011;41530;52.382;5.270;2024-01-07T00:12:05;2.92;;;1.40;;
55655;SDS011;41530;52.382;5.270;2024-01-07T00:14:32;1.73;;;1.60;;
55655;SDS011;41530;52.382;5.270;2024-01-07T00:17:01;3.40;;;1.52;;
55655;SDS011;41530;52.382;5.270;2024-01-07T00:19:28;2.33;;;1.65;;
55655;SDS011;41530;52.382;5.270;2024-01-07T00:21:57;1.83;;;1.42;;
55655;SDS011;41530;52.382;5.270;2024-01-07T00:24:24;2.05;;;1.42;;
55655;SDS011;41530;52.382;5.270;2024-01-07T00:26:52;1.83;;;1.40;;
55655;SDS011;41530;52.382;5.270;2024-01-07T00:29:18;3.88;;;1.60;;
55655;SDS011;41530;52.382;5.270;2024-01-07T00:31:47;1.85;;;1.55;;
55655;SDS011;41530;52.382;5.270;2024-01-07T00:34:13;1.92;;;1.40;;
55655;SDS011;41530;52.382;5.270;2024-01-07T00:36:40;2.30;;;1.65;;
55655;SDS011;41530;52.382;5.270;2024-01-07T00:39:07;2.97;;;1.63;;
55655;SDS011;41530;52.382;5.270;2024-01-07T00:41:33;1.17;;;1.08;;
55655;SDS011;41530;52.382;5.270;2024-01-07T00:44:00;2.22;;;1.60;;
55655;SDS011;41530;52.382;5.270;2024-01-07T00:46:27;1.52;;;1.40;;
55655;SDS011;41530;52.382;5.270;2024-01-07T00:48:53;1.42;;;1.30;;
55655;SDS011;41530;52.382;5.270;2024-01-07T00:51:20;1.58;;;1.45;;
55655;SDS011;41530;52.382;5.270;2024-01-07T00:53:47;2.58;;;1.65;;
55655;SDS011;41530;52.382;5.270;2024-01-07T00:56:16;2.10;;;1.40;;
55655;SDS011;41530;52.382;5.270;2024-01-07T00:58:42;2.35;;;1.40;;
55655;SDS011;41530;52.382;5.270;2024-01-07T01:01:09;1.98;;;1.60;;
55655;SDS011;41530;52.382;5.270;2024-01-07T01:03:36;2.05;;;1.60;;
55655;SDS011;41530;52.382;5.270;2024-01-07T01:06:03;1.75;;;1.50;;
55655;SDS011;41530;52.382;5.270;2024-01-07T01:08:30;1.80;;;1.40;;
55655;SDS011;41530;52.382;5.270;2024-01-07T01:10:57;2.55;;;1.58;;
55655;SDS011;41530;52.382;5.270;2024-01-07T01:13:24;1.70;;;1.40;;
55655;SDS011;41530;52.382;5.270;2024-01-07T01:15:50;1.60;;;1.40;;
55655;SDS011;41530;52.382;5.270;2024-01-07T01:18:17;1.60;;;1.30;;
55655;SDS011;41530;52.382;5.270;2024-01-07T01:20:44;1.40;;;1.15;;
55655;SDS011;41530;52.382;5.270;2024-01-07T01:23:11;1.83;;;1.50;;
55655;SDS011;41530;52.382;5.270;2024-01-07T01:25:37;2.80;;;1.70;;
55655;SDS011;41530;52.382;5.270;2024-01-07T01:28:06;3.72;;;1.70;;
55655;SDS011;41530;52.382;5.270;2024-01-07T01:30:33;1.83;;;1.50;;
55655;SDS011;41530;52.382;5.270;2024-01-07T01:32:59;1.60;;;1.50;;
55655;SDS011;41530;52.382;5.270;2024-01-07T01:35:28;1.90;;;1.40;;
55655;SDS011;41530;52.382;5.270;2024-01-07T01:37:54;2.13;;;1.70;;
55655;SDS011;41530;52.382;5.270;2024-01-07T01:40:21;1.23;;;1.00;;
55655;SDS011;41530;52.382;5.270;2024-01-07T01:42:48;3.60;;;1.55;;
55655;SDS011;41530;52.382;5.270;2024-01-07T01:45:15;4.78;;;1.60;;
55655;SDS011;41530;52.382;5.270;2024-01-07T01:47:41;2.17;;;1.48;;
55655;SDS011;41530;52.382;5.270;2024-01-07T01:50:09;2.05;;;1.70;;
55655;SDS011;41530;52.382;5.270;2024-01-07T01:52:38;1.98;;;1.30;;
55655;SDS011;41530;52.382;5.270;2024-01-07T01:55:05;2.45;;;1.35;;
55655;SDS011;41530;52.382;5.270;2024-01-07T01:57:35;2.22;;;1.63;;
55655;SDS011;41530;52.382;5.270;2024-01-07T02:00:03;2.33;;;1.50;;
55655;SDS011;41530;52.382;5.270;2024-01-07T02:02:31;1.90;;;1.50;;
55655;SDS011;41530;52.382;5.270;2024-01-07T02:05:01;2.38;;;1.80;;
55655;SDS011;41530;52.382;5.270;2024-01-07T02:07:29;2.35;;;1.63;;
55655;SDS011;41530;52.382;5.270;2024-01-07T02:09:57;3.15;;;1.80;;
55655;SDS011;41530;52.382;5.270;2024-01-07T02:12:24;2.00;;;1.67;;
55655;SDS011;41530;52.382;5.270;2024-01-07T02:14:51;1.92;;;1.70;;
55655;SDS011;41530;52.382;5.270;2024-01-07T02:17:18;1.60;;;1.50;;
55655;SDS011;41530;52.382;5.270;2024-01-07T02:19:46;1.75;;;1.40;;
55655;SDS011;41530;52.382;5.270;2024-01-07T02:22:13;1.90;;;1.50;;
55655;SDS011;41530;52.382;5.270;2024-01-07T02:24:39;2.33;;;1.63;;
55655;SDS011;41530;52.382;5.270;2024-01-07T02:27:06;3.45;;;1.83;;
55655;SDS011;41530;52.382;5.270;2024-01-07T02:29:33;2.33;;;1.88;;
55655;SDS011;41530;52.382;5.270;2024-01-07T02:31:59;3.47;;;1.92;;
55655;SDS011;41530;52.382;5.270;2024-01-07T02:34:26;2.42;;;1.70;;
55655;SDS011;41530;52.382;5.270;2024-01-07T02:36:53;4.20;;;2.20;;
55655;SDS011;41530;52.382;5.270;2024-01-07T02:39:19;2.15;;;1.83;;
55655;SDS011;41530;52.382;5.270;2024-01-07T02:41:46;2.10;;;1.80;;
55655;SDS011;41530;52.382;5.270;2024-01-07T02:44:13;2.45;;;1.50;;
55655;SDS011;41530;52.382;5.270;2024-01-07T02:46:40;3.65;;;1.70;;
55655;SDS011;41530;52.382;5.270;2024-01-07T02:49:06;2.63;;;1.77;;
55655;SDS011;41530;52.382;5.270;2024-01-07T02:51:33;3.15;;;1.80;;
55655;SDS011;41530;52.382;5.270;2024-01-07T02:54:00;2.00;;;1.77;;
55655;SDS011;41530;52.382;5.270;2024-01-07T02:56:26;2.55;;;1.73;;
55655;SDS011;41530;52.382;5.270;2024-01-07T02:58:53;1.83;;;1.60;;
55655;SDS011;41530;52.382;5.270;2024-01-07T03:01:21;3.60;;;1.60;;
55655;SDS011;41530;52.382;5.270;2024-01-07T03:03:49;2.03;;;1.60;;
55655;SDS011;41530;52.382;5.270;2024-01-07T03:06:16;3.25;;;1.50;;
55655;SDS011;41530;52.382;5.270;2024-01-07T03:08:43;3.45;;;2.15;;
55655;SDS011;41530;52.382;5.270;2024-01-07T03:11:09;3.55;;;1.90;;
55655;SDS011;41530;52.382;5.270;2024-01-07T03:13:36;2.35;;;1.80;;
55655;SDS011;41530;52.382;5.270;2024-01-07T03:16:03;2.05;;;1.58;;
55655;SDS011;41530;52.382;5.270;2024-01-07T03:18:30;1.52;;;1.42;;
55655;SDS011;41530;52.382;5.270;2024-01-07T03:20:57;2.30;;;1.73;;
55655;SDS011;41530;52.382;5.270;2024-01-07T03:23:23;2.28;;;1.65;;
55655;SDS011;41530;52.382;5.270;2024-01-07T03:25:50;2.72;;;1.80;;
55655;SDS011;41530;52.382;5.270;2024-01-07T03:28:17;2.22;;;1.80;;
55655;SDS011;41530;52.382;5.270;2024-01-07T03:30:43;2.42;;;1.73;;
55655;SDS011;41530;52.382;5.270;2024-01-07T03:33:11;2.15;;;1.58;;
55655;SDS011;41530;52.382;5.270;2024-01-07T03:35:38;2.33;;;1.70;;
55655;SDS011;41530;52.382;5.270;2024-01-07T03:38:04;1.85;;;1.42;;
55655;SDS011;41530;52.382;5.270;2024-01-07T03:40:31;1.83;;;1.52;;
55655;SDS011;41530;52.382;5.270;2024-01-07T03:42:58;1.77;;;1.42;;
55655;SDS011;41530;52.382;5.270;2024-01-07T03:45:24;2.53;;;1.98;;
55655;SDS011;41530;52.382;5.270;2024-01-07T03:47:54;2.53;;;1.83;;
55655;SDS011;41530;52.382;5.270;2024-01-07T03:50:20;2.63;;;1.88;;
55655;SDS011;41530;52.382;5.270;2024-01-07T03:52:47;1.92;;;1.73;;
55655;SDS011;41530;52.382;5.270;2024-01-07T03:55:14;2.83;;;1.95;;
55655;SDS011;41530;52.382;5.270;2024-01-07T03:57:40;1.88;;;1.42;;
55655;SDS011;41530;52.382;5.270;2024-01-07T04:00:07;2.38;;;1.80;;
55655;SDS011;41530;52.382;5.270;2024-01-07T04:02:36;2.90;;;1.80;;
55655;SDS011;41530;52.382;5.270;2024-01-07T04:05:02;2.10;;;1.52;;
55655;SDS011;41530;52.382;5.270;2024-01-07T04:07:29;1.75;;;1.48;;
55655;SDS011;41530;52.382;5.270;2024-01-07T04:09:58;2.38;;;1.70;;
55655;SDS011;41530;52.382;5.270;2024-01-07T04:12:25;1.90;;;1.65;;
55655;SDS011;41530;52.382;5.270;2024-01-07T04:14:51;2.50;;;1.98;;
55655;SDS011;41530;52.382;5.270;2024-01-07T04:17:18;2.08;;;1.73;;
55655;SDS011;41530;52.382;5.270;2024-01-07T04:19:45;3.70;;;1.80;;
55655;SDS011;41530;52.382;5.270;2024-01-07T04:22:11;1.90;;;1.48;;
55655;SDS011;41530;52.382;5.270;2024-01-07T04:24:40;2.42;;;1.90;;
55655;SDS011;41530;52.382;5.270;2024-01-07T04:27:10;2.28;;;1.85;;
55655;SDS011;41530;52.382;5.270;2024-01-07T04:29:36;2.17;;;1.75;;
55655;SDS011;41530;52.382;5.270;2024-01-07T04:32:03;2.83;;;2.00;;
55655;SDS011;41530;52.382;5.270;2024-01-07T04:34:30;2.20;;;1.90;;
55655;SDS011;41530;52.382;5.270;2024-01-07T04:36:57;3.15;;;1.98;;
55655;SDS011;41530;52.382;5.270;2024-01-07T04:39:23;2.50;;;1.88;;
55655;SDS011;41530;52.382;5.270;2024-01-07T04:41:50;2.47;;;1.70;;
55655;SDS011;41530;52.382;5.270;2024-01-07T04:44:17;3.08;;;2.13;;
55655;SDS011;41530;52.382;5.270;2024-01-07T04:46:43;2.33;;;1.95;;
55655;SDS011;41530;52.382;5.270;2024-01-07T04:49:13;2.28;;;1.70;;
55655;SDS011;41530;52.382;5.270;2024-01-07T04:51:40;2.33;;;1.95;;
55655;SDS011;41530;52.382;5.270;2024-01-07T04:54:09;2.67;;;1.77;;
55655;SDS011;41530;52.382;5.270;2024-01-07T04:56:36;2.55;;;1.90;;
55655;SDS011;41530;52.382;5.270;2024-01-07T04:59:02;2.28;;;1.83;;
55655;SDS011;41530;52.382;5.270;2024-01-07T05:01:29;3.47;;;2.00;;
55655;SDS011;41530;52.382;5.270;2024-01-07T05:03:58;4.00;;;2.20;;
55655;SDS011;41530;52.382;5.270;2024-01-07T05:06:25;2.33;;;1.85;;
55655;SDS011;41530;52.382;5.270;2024-01-07T05:08:52;2.63;;;2.03;;
55655;SDS011;41530;52.382;5.270;2024-01-07T05:11:18;3.10;;;1.88;;
55655;SDS011;41530;52.382;5.270;2024-01-07T05:13:45;2.30;;;1.83;;
55655;SDS011;41530;52.382;5.270;2024-01-07T05:16:21;2.13;;;1.67;;
55655;SDS011;41530;52.382;5.270;2024-01-07T05:18:47;3.65;;;1.98;;
55655;SDS011;41530;52.382;5.270;2024-01-07T05:21:18;2.78;;;1.73;;
55655;SDS011;41530;52.382;5.270;2024-01-07T05:23:44;2.70;;;1.75;;
55655;SDS011;41530;52.382;5.270;2024-01-07T05:26:11;4.40;;;2.13;;
55655;SDS011;41530;52.382;5.270;2024-01-07T05:28:38;2.53;;;2.05;;
55655;SDS011;41530;52.382;5.270;2024-01-07T05:31:04;2.63;;;2.00;;
55655;SDS011;41530;52.382;5.270;2024-01-07T05:33:31;2.08;;;1.73;;
55655;SDS011;41530;52.382;5.270;2024-01-07T05:35:58;3.50;;;2.10;;
55655;SDS011;41530;52.382;5.270;2024-01-07T05:38:24;2.33;;;1.77;;
55655;SDS011;41530;52.382;5.270;2024-01-07T05:40:52;4.32;;;1.90;;
55655;SDS011;41530;52.382;5.270;2024-01-07T05:43:19;3.97;;;2.08;;
55655;SDS011;41530;52.382;5.270;2024-01-07T05:45:45;4.00;;;1.95;;
55655;SDS011;41530;52.382;5.270;2024-01-07T05:48:12;2.65;;;2.00;;
55655;SDS011;41530;52.382;5.270;2024-01-07T05:50:39;2.58;;;1.85;;
55655;SDS011;41530;52.382;5.270;2024-01-07T05:53:05;2.58;;;1.92;;
55655;SDS011;41530;52.382;5.270;2024-01-07T05:55:32;2.65;;;1.95;;
55655;SDS011;41530;52.382;5.270;2024-01-07T05:57:58;6.28;;;2.40;;
55655;SDS011;41530;52.382;5.270;2024-01-07T06:00:25;6.03;;;2.08;;
55655;SDS011;41530;52.382;5.270;2024-01-07T06:02:52;3.33;;;2.25;;
55655;SDS011;41530;52.382;5.270;2024-01-07T06:05:18;2.35;;;2.10;;
55655;SDS011;41530;52.382;5.270;2024-01-07T06:07:45;2.55;;;2.10;;
55655;SDS011;41530;52.382;5.270;2024-01-07T06:10:12;2.70;;;2.15;;
55655;SDS011;41530;52.382;5.270;2024-01-07T06:12:38;2.83;;;1.80;;
55655;SDS011;41530;52.382;5.270;2024-01-07T06:15:05;2.53;;;2.05;;
55655;SDS011;41530;52.382;5.270;2024-01-07T06:17:32;4.25;;;2.00;;
55655;SDS011;41530;52.382;5.270;2024-01-07T06:19:59;2.42;;;1.70;;
55655;SDS011;41530;52.382;5.270;2024-01-07T06:22:26;2.38;;;1.90;;
55655;SDS011;41530;52.382;5.270;2024-01-07T06:24:52;2.53;;;1.70;;
55655;SDS011;41530;52.382;5.270;2024-01-07T06:27:19;6.53;;;1.90;;
55655;SDS011;41530;52.382;5.270;2024-01-07T06:29:45;2.58;;;1.55;;
55655;SDS011;41530;52.382;5.270;2024-01-07T06:32:13;2.47;;;1.58;;
55655;SDS011;41530;52.382;5.270;2024-01-07T06:34:40;3.47;;;1.80;;
55655;SDS011;41530;52.382;5.270;2024-01-07T06:37:06;2.40;;;1.27;;
55655;SDS011;41530;52.382;5.270;2024-01-07T06:39:36;4.15;;;1.60;;
55655;SDS011;41530;52.382;5.270;2024-01-07T06:42:04;3.38;;;1.85;;
55655;SDS011;41530;52.382;5.270;2024-01-07T06:44:31;2.90;;;1.83;;
55655;SDS011;41530;52.382;5.270;2024-01-07T06:46:58;2.13;;;1.45;;
55655;SDS011;41530;52.382;5.270;2024-01-07T06:49:24;4.15;;;1.98;;
55655;SDS011;41530;52.382;5.270;2024-01-07T06:51:51;3.78;;;1.90;;
55655;SDS011;41530;52.382;5.270;2024-01-07T06:54:18;6.10;;;1.90;;
55655;SDS011;41530;52.382;5.270;2024-01-07T06:56:44;2.53;;;1.80;;
55655;SDS011;41530;52.382;5.270;2024-01-07T06:59:11;2.17;;;1.80;;
55655;SDS011;41530;52.382;5.270;2024-01-07T07:01:38;3.28;;;1.80;;
55655;SDS011;41530;52.382;5.270;2024-01-07T07:04:05;2.70;;;1.67;;
55655;SDS011;41530;52.382;5.270;2024-01-07T07:06:31;3.10;;;1.58;;
55655;SDS011;41530;52.382;5.270;2024-01-07T07:08:58;3.90;;;1.80;;
55655;SDS011;41530;52.382;5.270;2024-01-07T07:11:25;1.92;;;1.48;;
55655;SDS011;41530;52.382;5.270;2024-01-07T07:13:51;2.20;;;1.70;;
55655;SDS011;41530;52.382;5.270;2024-01-07T07:16:18;4.25;;;1.50;;
55655;SDS011;41530;52.382;5.270;2024-01-07T07:18:44;2.47;;;1.73;;
55655;SDS011;41530;52.382;5.270;2024-01-07T07:21:11;2.42;;;1.60;;
55655;SDS011;41530;52.382;5.270;2024-01-07T07:23:38;2.47;;;1.75;;
55655;SDS011;41530;52.382;5.270;2024-01-07T07:26:04;1.80;;;1.50;;
55655;SDS011;41530;52.382;5.270;2024-01-07T07:28:31;2.63;;;1.80;;
55655;SDS011;41530;52.382;5.270;2024-01-07T07:30:57;3.63;;;1.40;;
55655;SDS011;41530;52.382;5.270;2024-01-07T07:33:24;2.17;;;1.63;;
55655;SDS011;41530;52.382;5.270;2024-01-07T07:35:51;1.80;;;1.60;;
55655;SDS011;41530;52.382;5.270;2024-01-07T07:38:18;2.55;;;1.48;;
55655;SDS011;41530;52.382;5.270;2024-01-07T07:40:44;1.95;;;1.48;;
55655;SDS011;41530;52.382;5.270;2024-01-07T07:43:16;2.47;;;1.40;;
55655;SDS011;41530;52.382;5.270;2024-01-07T07:45:43;2.17;;;1.40;;
55655;SDS011;41530;52.382;5.270;2024-01-07T07:48:09;2.25;;;1.80;;
55655;SDS011;41530;52.382;5.270;2024-01-07T07:50:36;2.03;;;1.67;;
55655;SDS011;41530;52.382;5.270;2024-01-07T07:53:02;2.38;;;1.55;;
55655;SDS011;41530;52.382;5.270;2024-01-07T07:55:29;3.22;;;2.00;;
55655;SDS011;41530;52.382;5.270;2024-01-07T07:57:56;1.52;;;1.38;;
55655;SDS011;41530;52.382;5.270;2024-01-07T08:00:24;2.47;;;1.92;;
55655;SDS011;41530;52.382;5.270;2024-01-07T08:02:51;2.60;;;1.70;;
55655;SDS011;41530;52.382;5.270;2024-01-07T08:05:18;3.08;;;1.52;;
55655;SDS011;41530;52.382;5.270;2024-01-07T08:07:47;2.45;;;1.83;;
55655;SDS011;41530;52.382;5.270;2024-01-07T08:10:14;2.60;;;1.70;;
55655;SDS011;41530;52.382;5.270;2024-01-07T08:12:40;4.90;;;1.60;;
55655;SDS011;41530;52.382;5.270;2024-01-07T08:15:07;4.95;;;1.88;;
55655;SDS011;41530;52.382;5.270;2024-01-07T08:17:34;2.35;;;1.92;;
55655;SDS011;41530;52.382;5.270;2024-01-07T08:20:01;4.85;;;2.15;;
55655;SDS011;41530;52.382;5.270;2024-01-07T08:22:28;6.78;;;1.98;;
55655;SDS011;41530;52.382;5.270;2024-01-07T08:24:55;3.22;;;2.00;;
55655;SDS011;41530;52.382;5.270;2024-01-07T08:27:22;3.88;;;1.70;;
55655;SDS011;41530;52.382;5.270;2024-01-07T08:29:48;3.10;;;1.98;;
55655;SDS011;41530;52.382;5.270;2024-01-07T08:32:15;2.60;;;1.90;;
55655;SDS011;41530;52.382;5.270;2024-01-07T08:34:41;3.55;;;1.92;;
55655;SDS011;41530;52.382;5.270;2024-01-07T08:37:08;3.03;;;1.90;;
55655;SDS011;41530;52.382;5.270;2024-01-07T08:39:35;7.78;;;1.95;;
55655;SDS011;41530;52.382;5.270;2024-01-07T08:42:02;2.85;;;1.90;;
55655;SDS011;41530;52.382;5.270;2024-01-07T08:44:30;4.93;;;1.88;;
55655;SDS011;41530;52.382;5.270;2024-01-07T08:46:57;3.10;;;1.55;;
55655;SDS011;41530;52.382;5.270;2024-01-07T08:49:25;4.15;;;1.70;;
55655;SDS011;41530;52.382;5.270;2024-01-07T08:51:52;2.88;;;1.85;;
55655;SDS011;41530;52.382;5.270;2024-01-07T08:54:21;6.38;;;1.60;;
55655;SDS011;41530;52.382;5.270;2024-01-07T08:56:49;2.50;;;1.60;;
55655;SDS011;41530;52.382;5.270;2024-01-07T08:59:15;3.17;;;1.60;;
55655;SDS011;41530;52.382;5.270;2024-01-07T09:01:42;2.17;;;1.52;;
55655;SDS011;41530;52.382;5.270;2024-01-07T09:04:09;3.72;;;1.60;;
55655;SDS011;41530;52.382;5.270;2024-01-07T09:06:35;2.13;;;1.50;;
55655;SDS011;41530;52.382;5.270;2024-01-07T09:09:02;1.98;;;1.30;;
55655;SDS011;41530;52.382;5.270;2024-01-07T09:11:32;2.15;;;1.40;;
55655;SDS011;41530;52.382;5.270;2024-01-07T09:14:00;3.08;;;1.77;;
55655;SDS011;41530;52.382;5.270;2024-01-07T09:16:26;1.75;;;1.30;;
55655;SDS011;41530;52.382;5.270;2024-01-07T09:18:53;6.47;;;1.67;;
55655;SDS011;41530;52.382;5.270;2024-01-07T09:21:20;2.95;;;1.48;;
55655;SDS011;41530;52.382;5.270;2024-01-07T09:23:46;1.58;;;1.02;;
55655;SDS011;41530;52.382;5.270;2024-01-07T09:26:13;2.10;;;1.30;;
55655;SDS011;41530;52.382;5.270;2024-01-07T09:28:41;2.17;;;1.63;;
55655;SDS011;41530;52.382;5.270;2024-01-07T09:31:09;2.72;;;1.60;;
55655;SDS011;41530;52.382;5.270;2024-01-07T09:33:35;7.20;;;1.48;;
55655;SDS011;41530;52.382;5.270;2024-01-07T09:36:02;2.03;;;1.70;;
55655;SDS011;41530;52.382;5.270;2024-01-07T09:38:45;4.65;;;1.15;;
55655;SDS011;41530;52.382;5.270;2024-01-07T09:41:12;1.38;;;1.20;;
55655;SDS011;41530;52.382;5.270;2024-01-07T09:43:39;2.65;;;1.23;;
55655;SDS011;41530;52.382;5.270;2024-01-07T09:46:06;3.63;;;1.50;;
55655;SDS011;41530;52.382;5.270;2024-01-07T09:48:32;2.45;;;1.27;;
55655;SDS011;41530;52.382;5.270;2024-01-07T09:51:00;6.13;;;1.25;;
55655;SDS011;41530;52.382;5.270;2024-01-07T09:53:30;2.15;;;1.30;;
55655;SDS011;41530;52.382;5.270;2024-01-07T09:56:06;2.90;;;1.13;;
55655;SDS011;41530;52.382;5.270;2024-01-07T09:58:41;3.05;;;1.10;;
55655;SDS011;41530;52.382;5.270;2024-01-07T10:01:09;1.60;;;1.13;;
55655;SDS011;41530;52.382;5.270;2024-01-07T10:03:36;6.30;;;1.10;;
55655;SDS011;41530;52.382;5.270;2024-01-07T10:06:04;1.95;;;1.23;;
55655;SDS011;41530;52.382;5.270;2024-01-07T10:08:31;2.25;;;1.20;;
55655;SDS011;41530;52.382;5.270;2024-01-07T10:10:59;4.05;;;1.33;;
55655;SDS011;41530;52.382;5.270;2024-01-07T10:13:27;2.50;;;1.30;;
55655;SDS011;41530;52.382;5.270;2024-01-07T10:15:54;1.20;;;0.80;;
55655;SDS011;41530;52.382;5.270;2024-01-07T10:18:21;1.95;;;1.23;;
55655;SDS011;41530;52.382;5.270;2024-01-07T10:20:48;2.80;;;1.10;;
55655;SDS011;41530;52.382;5.270;2024-01-07T10:23:19;2.75;;;1.10;;
55655;SDS011;41530;52.382;5.270;2024-01-07T10:25:46;1.38;;;1.10;;
55655;SDS011;41530;52.382;5.270;2024-01-07T10:28:13;1.65;;;1.00;;
55655;SDS011;41530;52.382;5.270;2024-01-07T10:30:48;3.55;;;1.23;;
55655;SDS011;41530;52.382;5.270;2024-01-07T10:33:17;1.60;;;0.93;;
55655;SDS011;41530;52.382;5.270;2024-01-07T10:35:51;2.70;;;0.95;;
55655;SDS011;41530;52.382;5.270;2024-01-07T10:38:19;2.15;;;1.23;;
55655;SDS011;41530;52.382;5.270;2024-01-07T10:40:48;1.98;;;1.23;;
55655;SDS011;41530;52.382;5.270;2024-01-07T10:43:18;1.98;;;1.25;;
55655;SDS011;41530;52.382;5.270;2024-01-07T10:45:46;1.23;;;0.90;;
55655;SDS011;41530;52.382;5.270;2024-01-07T10:48:17;3.85;;;1.08;;
55655;SDS011;41530;52.382;5.270;2024-01-07T10:50:45;3.10;;;1.20;;
55655;SDS011;41530;52.382;5.270;2024-01-07T10:53:20;1.80;;;0.90;;
55655;SDS011;41530;52.382;5.270;2024-01-07T10:55:51;2.05;;;0.80;;
55655;SDS011;41530;52.382;5.270;2024-01-07T10:58:26;7.53;;;1.20;;
55655;SDS011;41530;52.382;5.270;2024-01-07T11:00:52;4.05;;;1.02;;
55655;SDS011;41530;52.382;5.270;2024-01-07T11:03:33;2.05;;;1.30;;
55655;SDS011;41530;52.382;5.270;2024-01-07T11:06:17;2.83;;;1.13;;
55655;SDS011;41530;52.382;5.270;2024-01-07T11:11:50;2.15;;;0.90;;
55655;SDS011;41530;52.382;5.270;2024-01-07T11:17:12;3.60;;;1.25;;
55655;SDS011;41530;52.382;5.270;2024-01-07T11:19:49;2.47;;;1.00;;
55655;SDS011;41530;52.382;5.270;2024-01-07T11:24:50;3.33;;;1.15;;
55655;SDS011;41530;52.382;5.270;2024-01-07T11:27:18;5.63;;;1.30;;
55655;SDS011;41530;52.382;5.270;2024-01-07T11:29:52;9.38;;;1.52;;
55655;SDS011;41530;52.382;5.270;2024-01-07T11:32:21;7.88;;;1.33;;
55655;SDS011;41530;52.382;5.270;2024-01-07T11:37:23;10.55;;;1.40;;
55655;SDS011;41530;52.382;5.270;2024-01-07T11:39:51;7.68;;;1.25;;
55655;SDS011;41530;52.382;5.270;2024-01-07T11:42:21;5.25;;;1.45;;
55655;SDS011;41530;52.382;5.270;2024-01-07T11:47:18;6.28;;;1.92;;
55655;SDS011;41530;52.382;5.270;2024-01-07T11:49:46;12.00;;;2.08;;
55655;SDS011;41530;52.382;5.270;2024-01-07T11:52:13;8.50;;;2.13;;
55655;SDS011;41530;52.382;5.270;2024-01-07T11:54:40;6.05;;;1.85;;
55655;SDS011;41530;52.382;5.270;2024-01-07T11:57:08;6.38;;;1.73;;
55655;SDS011;41530;52.382;5.270;2024-01-07T11:59:37;5.80;;;2.17;;
55655;SDS011;41530;52.382;5.270;2024-01-07T12:02:07;4.53;;;1.73;;
55655;SDS011;41530;52.382;5.270;2024-01-07T12:04:34;5.72;;;2.40;;
55655;SDS011;41530;52.382;5.270;2024-01-07T12:07:01;11.40;;;2.17;;
55655;SDS011;41530;52.382;5.270;2024-01-07T12:09:29;5.97;;;2.05;;
55655;SDS011;41530;52.382;5.270;2024-01-07T12:11:57;5.93;;;2.50;;
55655;SDS011;41530;52.382;5.270;2024-01-07T12:14:24;4.28;;;1.90;;
55655;SDS011;41530;52.382;5.270;2024-01-07T12:16:52;8.90;;;2.85;;
55655;SDS011;41530;52.382;5.270;2024-01-07T12:19:18;5.85;;;2.47;;
55655;SDS011;41530;52.382;5.270;2024-01-07T12:21:46;7.50;;;2.53;;
55655;SDS011;41530;52.382;5.270;2024-01-07T12:24:14;6.25;;;2.15;;
55655;SDS011;41530;52.382;5.270;2024-01-07T12:26:41;8.15;;;2.60;;
55655;SDS011;41530;52.382;5.270;2024-01-07T12:29:07;8.25;;;2.50;;
55655;SDS011;41530;52.382;5.270;2024-01-07T12:31:36;13.75;;;3.05;;
55655;SDS011;41530;52.382;5.270;2024-01-07T12:34:03;6.00;;;2.55;;
55655;SDS011;41530;52.382;5.270;2024-01-07T12:36:30;10.38;;;2.38;;
55655;SDS011;41530;52.382;5.270;2024-01-07T12:38:58;7.25;;;2.90;;
55655;SDS011;41530;52.382;5.270;2024-01-07T12:41:25;8.80;;;2.50;;
55655;SDS011;41530;52.382;5.270;2024-01-07T12:43:52;6.53;;;2.30;;
55655;SDS011;41530;52.382;5.270;2024-01-07T12:46:18;10.38;;;2.47;;
55655;SDS011;41530;52.382;5.270;2024-01-07T12:48:45;7.38;;;2.40;;
55655;SDS011;41530;52.382;5.270;2024-01-07T12:51:12;8.05;;;2.75;;
55655;SDS011;41530;52.382;5.270;2024-01-07T12:53:39;8.07;;;3.22;;
55655;SDS011;41530;52.382;5.270;2024-01-07T12:56:05;7.43;;;2.63;;
55655;SDS011;41530;52.382;5.270;2024-01-07T12:58:32;7.22;;;2.60;;
55655;SDS011;41530;52.382;5.270;2024-01-07T13:00:59;5.53;;;2.63;;
55655;SDS011;41530;52.382;5.270;2024-01-07T13:03:26;4.82;;;2.38;;
55655;SDS011;41530;52.382;5.270;2024-01-07T13:05:53;5.78;;;3.10;;
55655;SDS011;41530;52.382;5.270;2024-01-07T13:08:20;5.13;;;2.35;;
55655;SDS011;41530;52.382;5.270;2024-01-07T13:10:52;8.10;;;2.53;;
55655;SDS011;41530;52.382;5.270;2024-01-07T13:13:20;7.82;;;3.55;;
55655;SDS011;41530;52.382;5.270;2024-01-07T13:15:47;5.45;;;2.40;;
55655;SDS011;41530;52.382;5.270;2024-01-07T13:18:14;7.88;;;2.33;;
55655;SDS011;41530;52.382;5.270;2024-01-07T13:20:41;6.90;;;2.50;;
55655;SDS011;41530;52.382;5.270;2024-01-07T13:23:08;5.47;;;2.47;;
55655;SDS011;41530;52.382;5.270;2024-01-07T13:25:35;5.93;;;2.60;;
55655;SDS011;41530;52.382;5.270;2024-01-07T13:28:01;6.22;;;2.38;;
55655;SDS011;41530;52.382;5.270;2024-01-07T13:30:29;6.88;;;2.15;;
55655;SDS011;41530;52.382;5.270;2024-01-07T13:32:55;7.32;;;2.65;;
55655;SDS011;41530;52.382;5.270;2024-01-07T13:35:28;5.05;;;2.53;;
55655;SDS011;41530;52.382;5.270;2024-01-07T13:37:56;8.48;;;2.70;;
55655;SDS011;41530;52.382;5.270;2024-01-07T13:40:23;5.45;;;2.30;;
55655;SDS011;41530;52.382;5.270;2024-01-07T13:42:50;9.07;;;2.35;;
55655;SDS011;41530;52.382;5.270;2024-01-07T13:45:19;4.18;;;2.30;;
55655;SDS011;41530;52.382;5.270;2024-01-07T13:47:50;5.20;;;2.40;;
55655;SDS011;41530;52.382;5.270;2024-01-07T13:50:17;5.90;;;2.33;;
55655;SDS011;41530;52.382;5.270;2024-01-07T13:52:44;8.02;;;2.25;;
55655;SDS011;41530;52.382;5.270;2024-01-07T13:55:10;5.15;;;2.17;;
55655;SDS011;41530;52.382;5.270;2024-01-07T13:57:37;5.28;;;1.88;;
55655;SDS011;41530;52.382;5.270;2024-01-07T14:00:05;5.85;;;2.30;;
55655;SDS011;41530;52.382;5.270;2024-01-07T14:02:36;4.88;;;2.08;;
55655;SDS011;41530;52.382;5.270;2024-01-07T14:05:04;3.35;;;2.03;;
55655;SDS011;41530;52.382;5.270;2024-01-07T14:07:37;5.03;;;2.45;;
55655;SDS011;41530;52.382;5.270;2024-01-07T14:10:04;5.15;;;2.67;;
55655;SDS011;41530;52.382;5.270;2024-01-07T14:12:32;4.90;;;2.10;;
55655;SDS011;41530;52.382;5.270;2024-01-07T14:14:59;5.60;;;2.10;;
55655;SDS011;41530;52.382;5.270;2024-01-07T14:17:25;3.03;;;2.03;;
55655;SDS011;41530;52.382;5.270;2024-01-07T14:19:52;6.22;;;2.50;;
55655;SDS011;41530;52.382;5.270;2024-01-07T14:22:20;3.95;;;1.92;;
55655;SDS011;41530;52.382;5.270;2024-01-07T14:24:47;7.15;;;2.22;;
55655;SDS011;41530;52.382;5.270;2024-01-07T14:27:15;6.45;;;2.58;;
55655;SDS011;41530;52.382;5.270;2024-01-07T14:29:42;6.90;;;2.20;;
55655;SDS011;41530;52.382;5.270;2024-01-07T14:32:10;4.43;;;2.10;;
55655;SDS011;41530;52.382;5.270;2024-01-07T14:34:40;9.32;;;2.08;;
55655;SDS011;41530;52.382;5.270;2024-01-07T14:37:08;3.88;;;1.92;;
55655;SDS011;41530;52.382;5.270;2024-01-07T14:39:37;7.70;;;2.10;;
55655;SDS011;41530;52.382;5.270;2024-01-07T14:42:04;7.25;;;1.88;;
55655;SDS011;41530;52.382;5.270;2024-01-07T14:44:31;2.67;;;1.90;;
55655;SDS011;41530;52.382;5.270;2024-01-07T14:47:12;3.22;;;1.85;;
55655;SDS011;41530;52.382;5.270;2024-01-07T14:49:41;5.38;;;1.85;;
55655;SDS011;41530;52.382;5.270;2024-01-07T14:52:07;5.05;;;1.80;;
55655;SDS011;41530;52.382;5.270;2024-01-07T14:54:34;3.63;;;2.25;;
55655;SDS011;41530;52.382;5.270;2024-01-07T14:57:04;6.20;;;2.55;;
55655;SDS011;41530;52.382;5.270;2024-01-07T14:59:30;4.82;;;2.22;;
55655;SDS011;41530;52.382;5.270;2024-01-07T15:01:57;2.58;;;1.98;;
55655;SDS011;41530;52.382;5.270;2024-01-07T15:04:25;4.07;;;2.20;;